Time;durP1;ratioP1;P1;durP2;ratioP2;P2;SDS_P1;SDS_P2;PMS_P1;PMS_P2;Temp;Humidity;BMP_temperature;BMP_pressure;BME280_temperature;BME280_humidity;BME280_pressure;Samples;Min_cycle;Max_cycle;Signal;HPM_P1;HPM_P2
2023/12/31 00:01:45;;;;;;;9.50;5.40;;;;;;;5.17;96.99;100503.71;106508;1263;100876;-81
2023/12/31 00:04:31;;;;;;;11.50;5.40;;;;;;;5.15;96.80;100505.69;106506;1264;98515;-81
2023/12/31 00:07:16;;;;;;;19.90;8.70;;;;;;;5.14;96.82;100507.43;106638;1269;97869;-81
2023/12/31 00:10:02;;;;;;;18.20;8.60;;;;;;;5.12;96.90;100508.80;106581;1263;97982;-80
2023/12/31 00:12:48;;;;;;;13.60;7.70;;;;;;;5.12;96.94;100511.33;106442;1267;102807;-81
2023/12/31 00:15:34;;;;;;;15.00;6.60;;;;;;;5.12;97.20;100503.36;106487;1262;99135;-81
2023/12/31 00:18:19;;;;;;;14.00;6.90;;;;;;;5.12;97.35;100503.01;106518;1264;99581;-82
2023/12/31 00:21:05;;;;;;;15.50;7.40;;;;;;;5.13;97.40;100503.27;106584;1267;97955;-82
2023/12/31 00:23:50;;;;;;;14.70;7.80;;;;;;;5.13;97.49;100501.88;106612;1262;98483;-81
2023/12/31 00:26:36;;;;;;;14.40;8.00;;;;;;;5.11;97.56;100502.38;106437;1264;181715;-81
2023/12/31 00:29:23;;;;;;;14.90;8.10;;;;;;;5.08;97.45;100509.75;106513;1270;99064;-80
2023/12/31 00:32:08;;;;;;;13.80;7.70;;;;;;;5.07;97.76;100511.83;106499;1263;98009;-81
2023/12/31 00:34:54;;;;;;;15.10;7.90;;;;;;;5.05;97.94;100510.45;106662;1267;97981;-81
2023/12/31 00:37:39;;;;;;;15.80;8.20;;;;;;;5.04;98.10;100512.36;106523;1267;98023;-80
2023/12/31 00:40:25;;;;;;;15.00;7.80;;;;;;;5.04;98.41;100511.46;106572;1264;101563;-80
2023/12/31 00:43:10;;;;;;;16.20;8.30;;;;;;;5.04;98.61;100510.87;106533;1266;99549;-80
2023/12/31 00:45:56;;;;;;;14.90;8.20;;;;;;;5.06;98.71;100511.95;106557;1264;97971;-80
2023/12/31 00:48:41;;;;;;;12.70;7.70;;;;;;;5.07;98.82;100513.39;106530;1264;98056;-82
2023/12/31 00:51:27;;;;;;;12.60;8.30;;;;;;;5.07;99.02;100516.22;106662;1264;99322;-80
2023/12/31 00:54:12;;;;;;;12.30;7.60;;;;;;;5.08;99.05;100514.95;106382;1269;101469;-80
2023/12/31 00:56:59;;;;;;;13.40;7.50;;;;;;;5.09;99.17;100512.48;106472;1267;99850;-80
2023/12/31 00:59:44;;;;;;;13.30;7.50;;;;;;;5.10;98.94;100514.92;106552;1264;99554;-81
2023/12/31 01:02:30;;;;;;;13.40;7.20;;;;;;;5.09;98.96;100512.83;106599;1264;97909;-80
2023/12/31 01:05:16;;;;;;;14.10;8.00;;;;;;;5.08;98.83;100512.23;106630;1262;98541;-80
2023/12/31 01:08:01;;;;;;;11.90;6.20;;;;;;;5.04;98.78;100519.04;106534;1266;101440;-80
2023/12/31 01:10:47;;;;;;;9.00;5.90;;;;;;;5.02;98.88;100525.48;106492;1264;99237;-81
2023/12/31 01:13:32;;;;;;;8.30;5.20;;;;;;;5.00;98.78;100527.59;106005;1263;98014;-81
2023/12/31 01:16:18;;;;;;;9.70;5.40;;;;;;;5.00;98.74;100534.16;105959;1266;99259;-80
2023/12/31 01:19:03;;;;;;;10.00;5.50;;;;;;;5.00;98.47;100535.91;106226;1265;97857;-81
2023/12/31 01:21:49;;;;;;;10.60;6.30;;;;;;;4.99;98.19;100533.23;106583;1264;103199;-80
2023/12/31 01:24:35;;;;;;;13.60;6.10;;;;;;;4.96;97.91;100534.69;106730;1264;100697;-81
2023/12/31 01:27:20;;;;;;;8.90;5.90;;;;;;;4.97;98.22;100535.89;106548;1267;99052;-80
2023/12/31 01:30:06;;;;;;;10.60;5.90;;;;;;;4.98;98.28;100535.60;106551;1264;97993;-80
2023/12/31 01:32:52;;;;;;;11.70;6.10;;;;;;;4.96;97.78;100536.80;105743;1264;98439;-79
2023/12/31 01:35:37;;;;;;;11.00;6.90;;;;;;;4.92;97.40;100540.05;105979;1264;101489;-80
2023/12/31 01:38:23;;;;;;;11.10;7.20;;;;;;;4.89;97.02;100540.73;105886;1264;99827;-79
2023/12/31 01:41:10;;;;;;;12.20;8.80;;;;;;;4.87;97.21;100546.08;105676;1267;97960;-79
2023/12/31 01:44:03;;;;;;;18.40;8.70;;;;;;;4.86;97.37;100545.84;105924;1267;97933;-80
2023/12/31 01:46:48;;;;;;;13.60;8.20;;;;;;;4.83;97.27;100543.10;106665;1266;97994;-80
2023/12/31 01:49:34;;;;;;;13.70;8.50;;;;;;;4.80;97.17;100541.47;106586;1264;102479;-81
2023/12/31 01:52:19;;;;;;;12.40;7.70;;;;;;;4.77;97.29;100542.52;106583;1262;99102;-81
2023/12/31 01:55:06;;;;;;;12.70;8.10;;;;;;;4.74;97.21;100542.31;106396;1264;98589;-80
2023/12/31 01:57:52;;;;;;;14.20;7.90;;;;;;;4.69;97.28;100538.81;106533;1264;97905;-80
2023/12/31 02:00:37;;;;;;;12.50;7.90;;;;;;;4.65;97.14;100538.52;106160;1267;98423;-80
2023/12/31 02:03:25;;;;;;;9.50;7.00;;;;;;;4.61;97.09;100540.27;106758;1263;102728;-80
2023/12/31 02:06:11;;;;;;;13.50;8.30;;;;;;;4.57;96.83;100538.41;106374;1267;100545;-80
2023/12/31 02:08:57;;;;;;;14.00;8.70;;;;;;;4.52;96.52;100541.19;106441;1263;98663;-80
2023/12/31 02:11:43;;;;;;;15.60;8.40;;;;;;;4.48;96.45;100547.05;106530;1262;97711;-80
2023/12/31 02:14:31;;;;;;;13.30;8.30;;;;;;;4.45;96.34;100544.02;106525;1266;97949;-81
2023/12/31 02:17:16;;;;;;;12.70;8.40;;;;;;;4.42;96.25;100548.06;106562;1262;101432;-80
2023/12/31 02:20:03;;;;;;;11.80;8.10;;;;;;;4.38;96.33;100548.78;106668;1262;100398;-81
2023/12/31 02:22:48;;;;;;;12.80;8.80;;;;;;;4.33;96.08;100546.44;106687;1264;98847;-81
2023/12/31 02:25:38;;;;;;;13.00;8.30;;;;;;;4.29;95.99;100548.60;106688;1267;97220;-81
2023/12/31 02:28:24;;;;;;;14.40;7.70;;;;;;;4.27;96.11;100548.51;106755;1263;97999;-81
2023/12/31 02:31:10;;;;;;;14.30;7.50;;;;;;;4.23;95.99;100547.55;106582;1264;102718;-80
2023/12/31 02:33:55;;;;;;;13.80;8.20;;;;;;;4.21;95.87;100539.66;106468;1262;99868;-80
2023/12/31 02:36:41;;;;;;;17.70;11.80;;;;;;;4.18;95.88;100543.14;106677;1263;97725;-81
2023/12/31 02:39:26;;;;;;;19.00;11.20;;;;;;;4.16;96.12;100545.27;106544;1262;98107;-81
2023/12/31 02:42:12;;;;;;;18.90;11.80;;;;;;;4.12;95.99;100547.30;106459;1263;97930;-81
2023/12/31 02:44:58;;;;;;;18.50;11.80;;;;;;;4.05;95.70;100553.64;106394;1262;101416;-80
2023/12/31 02:47:43;;;;;;;18.70;11.80;;;;;;;3.98;95.45;100552.52;106503;1267;99187;-80
2023/12/31 02:50:28;;;;;;;21.00;11.70;;;;;;;3.92;95.48;100559.23;106258;1262;97912;-80
2023/12/31 02:53:14;;;;;;;18.30;10.80;;;;;;;3.86;95.17;100565.61;106171;1264;97906;-80
2023/12/31 02:56:00;;;;;;;17.00;9.60;;;;;;;3.80;95.20;100571.05;105797;1263;98547;-79
2023/12/31 02:58:45;;;;;;;18.30;9.70;;;;;;;3.76;95.50;100572.09;105811;1262;101405;-80
2023/12/31 03:01:32;;;;;;;17.80;10.60;;;;;;;3.73;95.31;100569.04;105739;1267;100367;-79
2023/12/31 03:04:18;;;;;;;16.30;10.30;;;;;;;3.69;95.35;100567.83;105809;1263;97997;-79
2023/12/31 03:07:04;;;;;;;18.10;9.40;;;;;;;3.64;95.15;100568.67;105735;1264;98006;-79
2023/12/31 03:09:49;;;;;;;18.40;10.00;;;;;;;3.59;95.10;100574.23;106020;1267;96558;-80
2023/12/31 03:12:36;;;;;;;16.50;9.70;;;;;;;3.56;95.14;100581.63;106466;1267;101484;-79
2023/12/31 03:15:21;;;;;;;17.90;10.10;;;;;;;3.52;95.00;100587.48;105953;1267;99127;-80
2023/12/31 03:18:06;;;;;;;19.50;10.00;;;;;;;3.46;94.67;100589.91;106724;1264;99031;-80
2023/12/31 03:20:52;;;;;;;15.50;9.40;;;;;;;3.42;94.67;100589.32;106441;1266;98021;-80
2023/12/31 03:23:37;;;;;;;18.70;9.20;;;;;;;3.38;95.01;100592.67;106406;1267;97952;-81
2023/12/31 03:26:23;;;;;;;16.50;8.80;;;;;;;3.34;94.90;100589.63;106441;1269;102635;-80
2023/12/31 03:29:09;;;;;;;12.30;8.60;;;;;;;3.31;94.64;100590.49;106434;1266;100419;-82
2023/12/31 03:31:54;;;;;;;13.20;8.30;;;;;;;3.27;94.61;100596.36;106301;1262;98603;-79
2023/12/31 03:34:40;;;;;;;17.70;10.30;;;;;;;3.22;94.55;100597.39;105919;1267;97984;-80
2023/12/31 03:37:26;;;;;;;17.70;10.60;;;;;;;3.18;94.89;100591.90;106048;1267;98515;-80
2023/12/31 03:40:12;;;;;;;15.90;9.80;;;;;;;3.15;95.12;100594.10;106646;1262;101981;-80
2023/12/31 03:42:58;;;;;;;15.50;9.20;;;;;;;3.12;95.31;100593.41;106563;1262;100428;-80
2023/12/31 03:45:44;;;;;;;16.90;9.00;;;;;;;3.11;95.69;100593.92;106556;1264;98400;-81
2023/12/31 03:48:30;;;;;;;19.60;9.70;;;;;;;3.06;96.12;100595.90;106621;1264;97912;-80
2023/12/31 03:51:15;;;;;;;20.40;11.40;;;;;;;3.06;96.55;100592.20;106650;1267;99593;-81
2023/12/31 03:54:00;;;;;;;31.40;17.80;;;;;;;3.09;97.04;100598.11;106473;1263;101578;-80
2023/12/31 03:56:46;;;;;;;17.30;12.00;;;;;;;3.12;97.36;100598.89;106645;1264;99130;-80
2023/12/31 03:59:32;;;;;;;18.50;12.20;;;;;;;3.14;97.14;100598.85;106042;1267;98431;-79
2023/12/31 04:02:18;;;;;;;16.00;9.40;;;;;;;3.16;97.45;100601.52;106088;1263;98558;-80
2023/12/31 04:05:04;;;;;;;16.30;10.30;;;;;;;3.18;97.32;100605.48;106321;1267;97990;-80
2023/12/31 04:07:50;;;;;;;17.00;11.40;;;;;;;3.18;97.48;100604.90;105803;1266;101420;-78
2023/12/31 04:10:35;;;;;;;20.10;11.90;;;;;;;3.22;97.95;100602.65;105663;1264;99109;-79
2023/12/31 04:13:21;;;;;;;17.40;11.10;;;;;;;3.28;98.64;100605.27;106137;1264;99051;-80
2023/12/31 04:16:09;;;;;;;20.30;11.80;;;;;;;3.34;98.99;100607.70;106458;1263;98560;-81
2023/12/31 04:18:55;;;;;;;20.30;12.20;;;;;;;3.38;99.10;100605.14;106586;1264;98442;-80
2023/12/31 04:21:41;;;;;;;21.30;12.40;;;;;;;3.43;99.39;100603.44;106613;1262;101358;-81
2023/12/31 04:24:27;;;;;;;22.00;12.90;;;;;;;3.48;99.61;100593.09;106498;1266;99102;-80
2023/12/31 04:27:12;;;;;;;18.50;11.60;;;;;;;3.54;99.96;100589.73;106697;1263;98010;-81
2023/12/31 04:29:57;;;;;;;23.70;13.20;;;;;;;3.59;100.00;100588.91;106677;1264;97984;-81
2023/12/31 04:32:43;;;;;;;20.60;12.00;;;;;;;3.63;100.00;100585.73;106585;1262;97902;-81
2023/12/31 04:35:28;;;;;;;24.10;13.00;;;;;;;3.65;100.00;100583.77;106534;1262;102279;-81
2023/12/31 04:38:14;;;;;;;26.10;13.30;;;;;;;3.68;100.00;100585.75;106606;1264;100333;-81
2023/12/31 04:41:00;;;;;;;25.60;13.50;;;;;;;3.71;100.00;100586.53;106674;1267;97996;-81
2023/12/31 04:43:45;;;;;;;24.70;13.20;;;;;;;3.72;100.00;100582.67;106516;1264;98340;-81
2023/12/31 04:46:32;;;;;;;32.50;13.60;;;;;;;3.75;100.00;100581.95;106376;1264;97856;-81
2023/12/31 04:49:17;;;;;;;22.30;12.80;;;;;;;3.75;100.00;100578.71;106579;1266;101427;-81
2023/12/31 04:52:03;;;;;;;24.40;13.50;;;;;;;3.77;100.00;100577.98;106553;1266;99160;-81
2023/12/31 04:54:51;;;;;;;20.10;12.50;;;;;;;3.77;100.00;100574.13;106502;1263;99314;-80
2023/12/31 04:57:36;;;;;;;23.70;11.80;;;;;;;3.75;99.58;100574.65;106562;1263;97793;-81
2023/12/31 05:00:22;;;;;;;19.70;11.40;;;;;;;3.70;98.88;100576.02;106608;1262;98117;-81
2023/12/31 05:03:08;;;;;;;23.80;13.30;;;;;;;3.67;99.07;100577.33;106636;1263;101408;-81
2023/12/31 05:05:54;;;;;;;25.10;13.30;;;;;;;3.67;99.86;100577.86;106557;1264;99212;-81
2023/12/31 05:08:41;;;;;;;24.20;12.50;;;;;;;3.68;99.92;100574.97;106589;1267;97965;-81
2023/12/31 05:11:27;;;;;;;26.30;13.70;;;;;;;3.68;99.62;100576.00;106507;1262;97901;-82
2023/12/31 05:14:13;;;;;;;21.90;12.50;;;;;;;3.67;99.31;100576.45;106586;1263;97857;-81
2023/12/31 05:16:58;;;;;;;26.70;12.70;;;;;;;3.67;99.34;100578.20;106659;1264;102143;-81
2023/12/31 05:19:45;;;;;;;23.60;12.90;;;;;;;3.65;99.35;100579.02;106624;1263;99608;-81
2023/12/31 05:22:30;;;;;;;27.60;12.90;;;;;;;3.62;99.30;100579.26;106697;1262;98265;-80
2023/12/31 05:25:16;;;;;;;28.20;13.80;;;;;;;3.61;99.01;100580.64;106116;1262;97944;-79
2023/12/31 05:28:02;;;;;;;23.50;13.10;;;;;;;3.58;98.77;100582.48;105778;1266;98458;-79
2023/12/31 05:30:47;;;;;;;19.90;12.00;;;;;;;3.55;98.61;100585.73;105902;1263;101971;-80
2023/12/31 05:33:34;;;;;;;25.40;13.10;;;;;;;3.52;98.48;100583.40;105989;1264;99355;-80
2023/12/31 05:36:20;;;;;;;26.80;12.40;;;;;;;3.50;98.54;100582.85;106513;1263;98436;-80
2023/12/31 05:39:05;;;;;;;22.90;13.00;;;;;;;3.47;98.00;100576.93;106093;1263;98160;-80
2023/12/31 05:41:50;;;;;;;32.70;13.50;;;;;;;3.42;97.81;100577.80;106134;1263;99174;-79
2023/12/31 05:44:36;;;;;;;49.60;17.50;;;;;;;3.37;97.78;100580.70;105960;1262;101387;-79
2023/12/31 05:47:22;;;;;;;53.60;18.30;;;;;;;3.32;97.44;100580.85;105768;1262;99042;-80
2023/12/31 05:50:08;;;;;;;46.00;19.10;;;;;;;3.27;97.17;100583.11;105734;1262;98010;-79
2023/12/31 05:52:53;;;;;;;31.60;14.30;;;;;;;3.21;97.19;100583.45;105714;1263;98041;-79
2023/12/31 05:55:38;;;;;;;26.70;13.00;;;;;;;3.16;97.33;100588.52;105717;1262;98420;-79
2023/12/31 05:58:24;;;;;;;24.00;12.60;;;;;;;3.11;97.40;100588.05;106445;1267;101424;-80
2023/12/31 06:01:10;;;;;;;24.50;12.60;;;;;;;3.07;97.62;100589.10;105994;1266;100006;-79
2023/12/31 06:03:56;;;;;;;24.00;12.10;;;;;;;3.06;97.75;100590.64;105909;1264;98721;-80
2023/12/31 06:06:41;;;;;;;24.80;11.80;;;;;;;3.05;97.74;100589.70;105796;1264;97971;-80
2023/12/31 06:09:27;;;;;;;20.70;11.90;;;;;;;3.04;97.72;100587.69;106002;1264;98033;-80
2023/12/31 06:12:13;;;;;;;22.50;12.30;;;;;;;3.02;97.75;100586.40;106562;1263;101401;-81
2023/12/31 06:14:59;;;;;;;29.30;14.60;;;;;;;3.01;97.77;100589.38;106500;1262;100347;-78
2023/12/31 06:17:45;;;;;;;31.60;17.70;;;;;;;3.00;97.75;100585.59;105795;1267;98597;-79
2023/12/31 06:20:31;;;;;;;27.00;15.50;;;;;;;2.99;97.76;100581.77;105897;1263;97975;-79
2023/12/31 06:23:16;;;;;;;24.20;15.60;;;;;;;2.98;97.59;100588.58;105659;1264;98557;-79
2023/12/31 06:26:02;;;;;;;27.00;14.20;;;;;;;2.95;97.35;100592.76;105784;1267;101381;-79
2023/12/31 06:28:48;;;;;;;27.40;14.50;;;;;;;2.92;97.44;100592.23;105800;1262;99146;-80
2023/12/31 06:31:33;;;;;;;27.00;12.40;;;;;;;2.92;97.54;100588.79;105748;1263;99353;-80
2023/12/31 06:34:18;;;;;;;22.70;12.40;;;;;;;2.89;97.52;100583.21;106058;1263;98227;-79
2023/12/31 06:37:04;;;;;;;33.20;13.60;;;;;;;2.86;97.09;100587.20;105978;1265;99795;-79
2023/12/31 06:39:51;;;;;;;19.90;12.30;;;;;;;2.83;97.18;100586.39;105949;1265;102151;-80
2023/12/31 06:42:36;;;;;;;27.80;13.80;;;;;;;2.80;97.01;100586.14;106020;1262;99075;-80
2023/12/31 06:45:22;;;;;;;22.60;12.20;;;;;;;2.77;97.05;100585.15;106091;1262;97977;-80
2023/12/31 06:48:07;;;;;;;21.20;12.00;;;;;;;2.75;96.90;100582.79;106570;1263;97894;-80
2023/12/31 06:50:53;;;;;;;26.30;13.70;;;;;;;2.72;96.87;100581.59;106734;1262;96501;-79
2023/12/31 06:53:39;;;;;;;28.20;14.70;;;;;;;2.72;97.18;100579.84;106471;1264;102694;-79
2023/12/31 06:56:24;;;;;;;24.40;13.30;;;;;;;2.72;97.18;100574.02;106351;1262;99207;-79
2023/12/31 06:59:10;;;;;;;25.30;13.00;;;;;;;2.69;96.96;100573.91;106486;1263;98000;-79
2023/12/31 07:01:55;;;;;;;25.20;13.20;;;;;;;2.66;96.54;100578.29;106046;1262;98051;-80
2023/12/31 07:04:41;;;;;;;29.40;14.90;;;;;;;2.62;96.58;100578.23;106078;1262;97958;-81
2023/12/31 07:07:27;;;;;;;28.70;15.00;;;;;;;2.60;96.82;100572.80;106118;1267;102665;-80
2023/12/31 07:10:12;;;;;;;29.40;13.80;;;;;;;2.58;96.83;100571.56;106467;1267;100366;-79
2023/12/31 07:12:58;;;;;;;30.20;14.80;;;;;;;2.57;96.92;100572.77;105777;1267;99107;-80
2023/12/31 07:15:43;;;;;;;35.40;15.80;;;;;;;2.56;97.07;100574.56;106027;1264;97981;-80
2023/12/31 07:18:29;;;;;;;30.00;15.50;;;;;;;2.55;97.14;100571.54;106628;1264;96755;-80
2023/12/31 07:21:22;;;;;;;30.50;15.60;;;;;;;2.54;97.06;100573.90;106525;1264;101470;-79
2023/12/31 07:24:07;;;;;;;24.40;14.00;;;;;;;2.53;97.23;100573.42;106660;1266;99138;-80
2023/12/31 07:26:53;;;;;;;28.30;14.70;;;;;;;2.53;97.37;100576.98;106491;1262;97978;-80
2023/12/31 07:29:39;;;;;;;26.40;14.80;;;;;;;2.53;97.46;100576.48;106002;1264;98062;-80
2023/12/31 07:32:26;;;;;;;27.70;15.90;;;;;;;2.54;97.78;100576.31;106130;1263;96196;-80
2023/12/31 07:35:11;;;;;;;29.80;15.60;;;;;;;2.57;97.91;100576.77;106151;1264;101530;-80
2023/12/31 07:37:57;;;;;;;29.00;15.50;;;;;;;2.59;98.09;100579.75;106121;1265;99099;-79
2023/12/31 07:40:42;;;;;;;32.10;15.40;;;;;;;2.61;98.24;100577.11;106111;1266;98169;-80
2023/12/31 07:43:28;;;;;;;29.40;15.30;;;;;;;2.63;98.35;100578.06;106110;1264;97975;-79
2023/12/31 07:46:13;;;;;;;26.10;15.30;;;;;;;2.63;98.43;100580.83;106495;1267;98426;-79
2023/12/31 07:48:58;;;;;;;33.80;19.00;;;;;;;2.65;98.55;100582.44;106212;1262;101431;-80
2023/12/31 07:51:45;;;;;;;39.80;19.80;;;;;;;2.66;98.64;100586.38;105786;1262;99713;-79
2023/12/31 07:54:30;;;;;;;47.60;22.10;;;;;;;2.64;98.60;100588.48;105641;1264;98996;-79
2023/12/31 07:57:16;;;;;;;37.70;20.60;;;;;;;2.64;98.59;100587.78;105734;1262;99068;-79
2023/12/31 08:00:04;;;;;;;35.80;19.60;;;;;;;2.65;98.43;100585.39;105709;1262;97963;-79
2023/12/31 08:02:57;;;;;;;38.70;20.60;;;;;;;2.64;97.98;100583.77;106008;1263;101516;-80
2023/12/31 08:05:42;;;;;;;34.40;19.40;;;;;;;2.60;97.91;100582.69;105821;1262;99196;-81
2023/12/31 08:08:28;;;;;;;30.10;18.90;;;;;;;2.59;98.02;100584.02;105703;1266;97997;-79
2023/12/31 08:11:13;;;;;;;33.50;19.80;;;;;;;2.59;98.25;100583.33;105734;1265;97965;-79
2023/12/31 08:13:59;;;;;;;34.60;19.80;;;;;;;2.60;98.40;100582.86;105605;1262;97965;-80
2023/12/31 08:16:45;;;;;;;34.30;18.70;;;;;;;2.61;98.62;100587.67;105788;1264;101346;-80
2023/12/31 08:19:30;;;;;;;32.30;18.40;;;;;;;2.62;98.91;100584.25;105845;1262;99134;-79
2023/12/31 08:22:17;;;;;;;36.00;18.90;;;;;;;2.66;99.29;100583.21;105684;1263;97921;-79
2023/12/31 08:25:02;;;;;;;37.80;19.30;;;;;;;2.69;99.42;100586.95;105624;1263;98305;-80
2023/12/31 08:27:48;;;;;;;42.10;20.40;;;;;;;2.72;99.49;100592.86;106171;1263;97775;-80
2023/12/31 08:30:34;;;;;;;40.40;20.50;;;;;;;2.75;99.71;100595.57;105934;1263;102162;-83
2023/12/31 08:33:19;;;;;;;35.60;21.20;;;;;;;2.79;99.80;100595.40;105570;1270;99282;-83
2023/12/31 08:36:05;;;;;;;37.80;21.40;;;;;;;2.83;99.98;100597.52;105789;1263;98984;-83
2023/12/31 08:38:51;;;;;;;37.10;19.20;;;;;;;2.86;100.00;100596.05;105688;1263;98581;-84
2023/12/31 08:41:37;;;;;;;35.90;17.90;;;;;;;2.89;100.00;100594.52;105856;1264;98522;-85
2023/12/31 08:44:23;;;;;;;35.20;18.00;;;;;;;2.91;100.00;100595.70;106193;1262;102219;-81
2023/12/31 08:47:09;;;;;;;44.20;19.50;;;;;;;2.95;100.00;100598.88;106482;1262;100344;-82
2023/12/31 08:49:55;;;;;;;44.00;20.00;;;;;;;2.99;100.00;100602.02;106046;1263;98115;-82
2023/12/31 08:52:43;;;;;;;36.60;19.80;;;;;;;3.02;100.00;100604.73;105879;1264;97965;-81
2023/12/31 08:55:30;;;;;;;43.50;21.80;;;;;;;3.06;100.00;100606.91;106107;1262;97502;-81
2023/12/31 08:58:15;;;;;;;43.70;20.70;;;;;;;3.09;100.00;100606.97;105803;1264;101434;-81
2023/12/31 09:01:01;;;;;;;44.40;21.50;;;;;;;3.12;100.00;100605.77;105906;1263;99073;-83
2023/12/31 09:03:46;;;;;;;50.80;29.70;;;;;;;3.16;100.00;100601.73;105859;1262;98170;-83
2023/12/31 09:06:32;;;;;;;50.30;28.70;;;;;;;3.19;100.00;100596.88;105928;1262;98743;-86
2023/12/31 09:09:18;;;;;;;47.30;25.70;;;;;;;3.22;100.00;100596.77;106091;1264;97922;-80
2023/12/31 09:12:04;;;;;;;55.50;29.90;;;;;;;3.26;100.00;100596.09;106004;1264;103706;-81
2023/12/31 09:14:50;;;;;;;106.20;52.50;;;;;;;3.29;100.00;100592.64;106140;1266;99216;-82
2023/12/31 09:17:36;;;;;;;60.10;33.30;;;;;;;3.31;100.00;100594.76;106238;1263;99093;-78
2023/12/31 09:20:22;;;;;;;50.40;29.20;;;;;;;3.31;100.00;100591.19;105549;1264;97949;-78
2023/12/31 09:23:08;;;;;;;51.30;28.50;;;;;;;3.33;100.00;100587.85;106025;1263;98532;-76
2023/12/31 09:25:53;;;;;;;68.20;33.60;;;;;;;3.32;100.00;100585.58;105316;1264;102101;-77
2023/12/31 09:28:42;;;;;;;64.60;34.70;;;;;;;3.35;100.00;100584.50;105381;1268;99095;-78
2023/12/31 09:31:27;;;;;;;58.70;30.40;;;;;;;3.38;100.00;100579.82;105232;1262;97983;-78
2023/12/31 09:34:13;;;;;;;55.60;27.60;;;;;;;3.41;100.00;100569.77;105479;1264;97838;-77
2023/12/31 09:36:59;;;;;;;50.60;27.10;;;;;;;3.42;100.00;100568.06;105356;1267;98483;-77
2023/12/31 09:39:46;;;;;;;52.50;28.80;;;;;;;3.44;100.00;100565.75;105325;1262;102910;-77
2023/12/31 09:42:48;;;;;;;64.70;31.20;;;;;;;3.47;100.00;100568.31;105133;1266;99121;-77
2023/12/31 09:45:34;;;;;;;56.30;29.20;;;;;;;3.49;100.00;100565.32;105118;1267;99469;-76
2023/12/31 09:48:21;;;;;;;55.00;28.90;;;;;;;3.52;100.00;100560.95;105135;1267;97991;-77
2023/12/31 09:51:06;;;;;;;43.40;26.00;;;;;;;3.55;100.00;100555.39;105309;1266;98420;-77
2023/12/31 09:53:53;;;;;;;40.20;23.10;;;;;;;3.58;100.00;100549.66;105164;1264;102274;-77
2023/12/31 09:56:40;;;;;;;47.10;23.20;;;;;;;3.61;100.00;100546.36;105096;1267;100411;-77
2023/12/31 09:59:27;;;;;;;46.60;27.00;;;;;;;3.63;100.00;100547.35;105139;1264;99026;-77
2023/12/31 10:02:21;;;;;;;45.30;26.50;;;;;;;3.67;100.00;100550.77;105125;1262;98807;-78
2023/12/31 10:05:06;;;;;;;50.80;28.00;;;;;;;3.69;100.00;100550.54;105254;1270;99120;-78
2023/12/31 10:07:54;;;;;;;46.00;24.50;;;;;;;3.69;100.00;100549.26;105419;1262;101414;-77
2023/12/31 10:10:40;;;;;;;96.70;56.80;;;;;;;3.70;100.00;100547.55;105385;1262;101008;-77
2023/12/31 10:13:28;;;;;;;110.30;78.10;;;;;;;3.72;100.00;100543.36;105212;1280;98052;-77
2023/12/31 10:16:14;;;;;;;83.70;60.30;;;;;;;3.73;100.00;100541.46;105319;1266;97952;-78
2023/12/31 10:18:59;;;;;;;49.00;31.70;;;;;;;3.74;100.00;100532.14;105349;1264;98524;-78
2023/12/31 10:21:45;;;;;;;58.40;32.70;;;;;;;3.77;100.00;100526.77;105159;1262;102181;-77
2023/12/31 10:24:31;;;;;;;46.80;28.00;;;;;;;3.81;100.00;100525.87;105692;1266;99258;-78
2023/12/31 10:27:17;;;;;;;42.70;24.10;;;;;;;3.83;100.00;100519.13;105706;1262;97956;-79
2023/12/31 10:30:10;;;;;;;38.90;21.00;;;;;;;3.84;100.00;100519.22;105578;1262;98159;-78
2023/12/31 10:33:10;;;;;;;52.30;35.40;;;;;;;3.87;100.00;100515.95;105861;1262;98542;-79
2023/12/31 10:36:06;;;;;;;41.40;25.20;;;;;;;3.90;100.00;100511.20;105540;1267;102677;-77
2023/12/31 10:38:52;;;;;;;46.60;26.70;;;;;;;3.92;100.00;100510.02;105022;1264;99088;-76
2023/12/31 10:41:39;;;;;;;60.00;38.90;;;;;;;3.93;100.00;100505.66;105097;1267;97883;-77
2023/12/31 10:44:26;;;;;;;65.20;35.90;;;;;;;3.94;100.00;100503.78;105006;1263;98848;-77
2023/12/31 10:47:16;;;;;;;89.00;40.90;;;;;;;3.94;100.00;100497.98;105202;1263;97894;-77
2023/12/31 10:50:01;;;;;;;141.30;55.20;;;;;;;3.93;100.00;100493.98;105866;1262;101827;-77
2023/12/31 10:52:50;;;;;;;108.80;46.10;;;;;;;3.94;100.00;100489.98;105351;1262;100155;-78
2023/12/31 10:55:37;;;;;;;107.60;42.80;;;;;;;3.96;100.00;100485.98;105128;1262;97981;-77
2023/12/31 10:58:23;;;;;;;165.90;59.90;;;;;;;3.96;100.00;100484.02;105154;1268;98179;-77
2023/12/31 11:01:10;;;;;;;82.50;37.60;;;;;;;3.98;100.00;100478.86;105174;1266;97979;-76
2023/12/31 11:03:56;;;;;;;75.30;34.20;;;;;;;4.01;100.00;100478.42;105163;1262;103248;-77
2023/12/31 11:06:46;;;;;;;57.60;28.90;;;;;;;4.02;100.00;100473.83;105165;1263;100211;-76
2023/12/31 11:09:33;;;;;;;43.10;24.00;;;;;;;4.06;100.00;100466.45;105129;1265;99087;-77
2023/12/31 11:12:20;;;;;;;57.80;28.80;;;;;;;4.08;100.00;100464.46;105116;1267;97986;-77
2023/12/31 11:15:10;;;;;;;46.50;25.50;;;;;;;4.10;100.00;100460.40;105322;1267;99671;-77
2023/12/31 11:18:19;;;;;;;41.60;22.10;;;;;;;4.11;100.00;100457.48;105232;1263;102022;-78
2023/12/31 11:21:26;;;;;;;43.10;22.50;;;;;;;4.12;100.00;100452.78;105133;1262;100625;-78
2023/12/31 11:24:18;;;;;;;44.00;22.20;;;;;;;4.13;100.00;100450.67;105132;1267;98001;-77
2023/12/31 11:27:08;;;;;;;67.60;30.50;;;;;;;4.16;100.00;100445.47;105084;1264;97879;-77
2023/12/31 11:29:54;;;;;;;73.80;35.50;;;;;;;4.18;100.00;100445.65;105203;1262;98830;-77
2023/12/31 11:32:40;;;;;;;63.60;30.80;;;;;;;4.19;100.00;100436.88;105183;1268;102631;-78
2023/12/31 11:35:52;;;;;;;53.70;26.20;;;;;;;4.21;100.00;100432.52;105207;1267;99163;-77
2023/12/31 11:38:51;;;;;;;53.80;29.00;;;;;;;4.25;100.00;100428.48;105300;1265;97965;-78
2023/12/31 11:41:47;;;;;;;48.80;25.90;;;;;;;4.27;100.00;100420.45;105198;1264;98063;-76
2023/12/31 11:44:37;;;;;;;50.20;26.60;;;;;;;4.29;100.00;100417.84;105210;1263;98537;-76
2023/12/31 11:47:29;;;;;;;48.30;26.60;;;;;;;4.32;100.00;100415.77;105250;1267;101414;-77
2023/12/31 11:50:21;;;;;;;49.40;25.40;;;;;;;4.36;100.00;100416.23;105169;1266;99608;-77
2023/12/31 11:53:11;;;;;;;53.70;28.40;;;;;;;4.40;100.00;100417.97;105390;1265;97982;-79
2023/12/31 11:55:58;;;;;;;53.00;28.10;;;;;;;4.44;100.00;100420.41;105350;1266;97979;-77
2023/12/31 11:58:44;;;;;;;70.60;34.50;;;;;;;4.47;100.00;100417.61;105246;1267;97780;-78
2023/12/31 12:01:29;;;;;;;62.60;31.30;;;;;;;4.51;100.00;100414.35;105351;1262;102682;-79
2023/12/31 12:04:15;;;;;;;53.50;29.40;;;;;;;4.55;100.00;100411.09;105562;1265;99154;-79
2023/12/31 12:07:01;;;;;;;78.30;40.20;;;;;;;4.59;100.00;100405.45;105424;1265;98633;-78
2023/12/31 12:09:46;;;;;;;99.70;50.10;;;;;;;4.62;100.00;100401.89;106637;1262;96502;-79
2023/12/31 12:12:32;;;;;;;76.50;40.80;;;;;;;4.66;100.00;100396.52;105333;1266;97963;-78
2023/12/31 12:15:17;;;;;;;66.20;37.00;;;;;;;4.71;100.00;100395.92;105226;1262;102124;-77
2023/12/31 12:18:24;;;;;;;68.80;38.60;;;;;;;4.75;100.00;100395.90;105506;1267;100497;-79
2023/12/31 12:21:09;;;;;;;77.00;41.40;;;;;;;4.78;100.00;100394.71;105347;1267;98106;-78
2023/12/31 12:23:55;;;;;;;56.90;31.50;;;;;;;4.80;100.00;100394.67;105353;1262;98127;-77
2023/12/31 12:26:41;;;;;;;44.40;25.60;;;;;;;4.83;100.00;100391.46;105293;1267;137660;-79
2023/12/31 12:29:27;;;;;;;53.40;31.40;;;;;;;4.87;100.00;100390.07;105422;1267;101400;-78
2023/12/31 12:32:20;;;;;;;64.30;35.10;;;;;;;4.89;100.00;100389.27;105517;1267;98913;-78
2023/12/31 12:35:08;;;;;;;54.40;32.20;;;;;;;4.92;100.00;100386.32;105254;1267;97990;-78